createdAt,value
2024-02-06T00:00:25.369Z,21.70
2024-02-06T00:01:25.699Z,21.74
2024-02-06T00:02:25.509Z,21.77
2024-02-06T00:03:25.538Z,21.81
2024-02-06T00:04:25.619Z,21.83
2024-02-06T00:05:25.653Z,21.86
2024-02-06T00:06:25.808Z,21.88
2024-02-06T00:07:32.235Z,21.91
2024-02-06T00:08:26.786Z,21.93
2024-02-06T00:09:25.714Z,21.96
2024-02-06T00:10:26.621Z,21.97
2024-02-06T00:11:25.757Z,21.98
2024-02-06T00:12:25.733Z,21.99
2024-02-06T00:13:25.776Z,21.98
2024-02-06T00:14:25.702Z,21.96
2024-02-06T00:15:25.725Z,21.94
2024-02-06T00:16:25.771Z,21.92
2024-02-06T00:17:25.749Z,21.91
2024-02-06T00:18:25.743Z,21.91
2024-02-06T00:19:25.796Z,21.92
2024-02-06T00:20:25.852Z,21.92
2024-02-06T00:21:25.744Z,21.94
2024-02-06T00:22:25.765Z,21.96
2024-02-06T00:23:25.786Z,21.97
2024-02-06T00:24:25.824Z,21.98
2024-02-06T00:25:25.924Z,22.01
2024-02-06T00:26:25.917Z,22.02
2024-02-06T00:27:26.031Z,22.03
2024-02-06T00:28:26.007Z,22.03
2024-02-06T00:29:25.971Z,22.02
2024-02-06T00:30:25.991Z,22.01
2024-02-06T00:31:26.125Z,21.99
2024-02-06T00:32:26.170Z,21.97
2024-02-06T00:33:26.165Z,21.96
2024-02-06T00:34:26.216Z,21.96
2024-02-06T00:35:26.185Z,21.96
2024-02-06T00:36:26.222Z,21.97
2024-02-06T00:37:26.286Z,21.97
2024-02-06T00:38:26.287Z,21.97
2024-02-06T00:39:26.445Z,21.95
2024-02-06T00:40:26.388Z,21.94
2024-02-06T00:41:26.418Z,21.94
2024-02-06T00:42:26.433Z,21.94
2024-02-06T00:43:26.566Z,21.95
2024-02-06T00:44:26.508Z,21.95
2024-02-06T00:45:26.591Z,21.96
2024-02-06T00:46:26.655Z,21.97
2024-02-06T00:47:26.657Z,21.98
2024-02-06T00:48:26.976Z,22.00
2024-02-06T00:49:26.868Z,22.01
2024-02-06T00:50:26.935Z,22.02
2024-02-06T00:51:26.754Z,22.03
2024-02-06T00:52:26.867Z,22.04
2024-02-06T00:53:26.821Z,22.03
2024-02-06T00:54:26.841Z,22.03
2024-02-06T00:55:26.918Z,22.04
2024-02-06T00:56:26.879Z,22.05
2024-02-06T00:57:26.909Z,22.05
2024-02-06T00:58:27.013Z,22.06
2024-02-06T00:59:27.001Z,22.07
2024-02-06T01:00:27.018Z,22.08
2024-02-06T01:01:27.146Z,22.08
2024-02-06T01:02:27.102Z,22.09
2024-02-06T01:03:27.141Z,22.10
2024-02-06T01:04:27.210Z,22.11
2024-02-06T01:05:27.158Z,22.12
2024-02-06T01:06:27.193Z,22.12
2024-02-06T01:07:27.459Z,22.12
2024-02-06T01:08:27.292Z,22.13
2024-02-06T01:09:27.272Z,22.14
2024-02-06T01:10:27.353Z,22.14
2024-02-06T01:11:27.288Z,22.15
2024-02-06T01:12:27.335Z,22.12
2024-02-06T01:13:27.434Z,22.08
2024-02-06T01:14:27.367Z,22.03
2024-02-06T01:15:27.406Z,21.98
2024-02-06T01:16:27.500Z,21.92
2024-02-06T01:17:27.477Z,21.86
2024-02-06T01:18:27.546Z,21.79
2024-02-06T01:19:27.659Z,21.73
2024-02-06T01:20:27.632Z,21.64
2024-02-06T01:21:27.681Z,21.59
2024-02-06T01:22:27.767Z,21.56
2024-02-06T01:23:27.842Z,21.55
2024-02-06T01:24:27.880Z,21.55
2024-02-06T01:25:27.953Z,21.56
2024-02-06T01:26:28.013Z,21.55
2024-02-06T01:27:28.100Z,21.55
2024-02-06T01:28:28.198Z,21.51
2024-02-06T01:29:28.218Z,21.45
2024-02-06T01:30:28.283Z,21.41
2024-02-06T01:31:28.458Z,21.39
2024-02-06T01:32:28.429Z,21.39
2024-02-06T01:33:28.568Z,21.41
2024-02-06T01:34:28.648Z,21.45
2024-02-06T01:35:28.624Z,21.48
2024-02-06T01:36:28.716Z,21.53
2024-02-06T01:37:28.806Z,21.57
2024-02-06T01:38:28.825Z,21.62
2024-02-06T01:39:28.861Z,21.67
2024-02-06T01:40:28.950Z,21.71
2024-02-06T01:41:28.983Z,21.74
2024-02-06T01:42:29.047Z,21.76
2024-02-06T01:43:29.093Z,21.78
2024-02-06T01:44:29.148Z,21.79
2024-02-06T01:45:29.163Z,21.80
2024-02-06T01:46:29.337Z,21.80
2024-02-06T01:47:29.371Z,21.81
2024-02-06T01:48:29.383Z,21.79
2024-02-06T01:49:29.455Z,21.77
2024-02-06T01:50:29.414Z,21.75
2024-02-06T01:51:29.536Z,21.73
2024-02-06T01:52:29.606Z,21.73
2024-02-06T01:53:29.532Z,21.72
2024-02-06T01:54:29.602Z,21.71
2024-02-06T01:55:29.709Z,21.69
2024-02-06T01:56:29.726Z,21.68
2024-02-06T01:57:29.765Z,21.65
2024-02-06T01:58:29.911Z,21.63
2024-02-06T01:59:29.877Z,21.60
2024-02-06T02:00:29.950Z,21.58
2024-02-06T02:01:30.081Z,21.56
2024-02-06T02:02:30.097Z,21.55
2024-02-06T02:03:30.223Z,21.57
2024-02-06T02:04:30.249Z,21.61
2024-02-06T02:05:30.537Z,21.66
2024-02-06T02:06:30.385Z,21.72
2024-02-06T02:07:30.444Z,21.76
2024-02-06T02:08:30.450Z,21.81
2024-02-06T02:09:30.441Z,21.86
2024-02-06T02:10:30.576Z,21.91
2024-02-06T02:11:30.516Z,21.96
2024-02-06T02:12:30.513Z,22.02
2024-02-06T02:13:30.625Z,22.05
2024-02-06T02:14:30.569Z,22.10
2024-02-06T02:15:30.581Z,22.15
2024-02-06T02:16:30.634Z,22.19
2024-02-06T02:17:30.623Z,22.23
2024-02-06T02:18:30.750Z,22.25
2024-02-06T02:19:30.691Z,22.29
2024-02-06T02:20:30.614Z,22.33
2024-02-06T02:21:30.673Z,22.36
2024-02-06T02:22:30.702Z,22.38
2024-02-06T02:23:30.717Z,22.40
2024-02-06T02:24:30.769Z,22.41
2024-02-06T02:25:30.907Z,22.43
2024-02-06T02:26:30.878Z,22.43
2024-02-06T02:27:30.895Z,22.46
2024-02-06T02:28:31.056Z,22.49
2024-02-06T02:29:30.964Z,22.50
2024-02-06T02:30:31.002Z,22.52
2024-02-06T02:31:31.066Z,22.54
2024-02-06T02:32:31.206Z,22.55
2024-02-06T02:33:31.281Z,22.57
2024-02-06T02:34:31.448Z,22.59
2024-02-06T02:35:31.222Z,22.60
2024-02-06T02:36:31.218Z,22.62
2024-02-06T02:37:31.397Z,22.63
2024-02-06T02:38:31.359Z,22.64
2024-02-06T02:39:31.300Z,22.66
2024-02-06T02:40:31.402Z,22.68
2024-02-06T02:41:31.339Z,22.69
2024-02-06T02:42:31.371Z,22.69
2024-02-06T02:43:31.468Z,22.71
2024-02-06T02:44:31.455Z,22.73
2024-02-06T02:45:31.542Z,22.73
2024-02-06T02:46:31.673Z,22.76
2024-02-06T02:47:31.707Z,22.76
2024-02-06T02:48:31.801Z,22.77
2024-02-06T02:49:31.849Z,22.79
2024-02-06T02:50:31.837Z,22.80
2024-02-06T02:51:31.927Z,22.81
2024-02-06T02:52:32.054Z,22.82
2024-02-06T02:53:32.052Z,22.83
2024-02-06T02:54:32.127Z,22.84
2024-02-06T02:55:32.257Z,22.85
2024-02-06T02:56:32.251Z,22.86
2024-02-06T02:57:32.338Z,22.86
2024-02-06T02:58:32.443Z,22.87
2024-02-06T02:59:32.444Z,22.88
2024-02-06T03:00:32.549Z,22.88
2024-02-06T03:01:32.753Z,22.89
2024-02-06T03:02:32.654Z,22.91
2024-02-06T03:03:32.754Z,22.91
2024-02-06T03:04:32.849Z,22.92
2024-02-06T03:05:32.891Z,22.93
2024-02-06T03:06:33.005Z,22.93
2024-02-06T03:07:33.088Z,22.95
2024-02-06T03:08:33.067Z,22.95
2024-02-06T03:09:33.105Z,22.95
2024-02-06T03:10:33.290Z,22.95
2024-02-06T03:11:33.233Z,22.94
2024-02-06T03:12:33.317Z,22.92
2024-02-06T03:13:33.567Z,22.90
2024-02-06T03:14:33.466Z,22.89
2024-02-06T03:15:33.536Z,22.88
2024-02-06T03:16:33.634Z,22.89
2024-02-06T03:17:33.699Z,22.89
2024-02-06T03:18:33.793Z,22.89
2024-02-06T03:19:33.865Z,22.90
2024-02-06T03:20:33.873Z,22.91
2024-02-06T03:21:33.959Z,22.91
2024-02-06T03:22:34.149Z,22.90
2024-02-06T03:23:34.093Z,22.87
2024-02-06T03:24:34.159Z,22.83
2024-02-06T03:25:34.258Z,22.80
2024-02-06T03:26:34.299Z,22.77
2024-02-06T03:27:34.413Z,22.74
2024-02-06T03:28:34.485Z,22.69
2024-02-06T03:29:34.415Z,22.65
2024-02-06T03:30:34.446Z,22.61
2024-02-06T03:31:34.515Z,22.58
2024-02-06T03:32:34.545Z,22.56
2024-02-06T03:33:34.703Z,22.56
2024-02-06T03:34:34.644Z,22.56
2024-02-06T03:35:34.621Z,22.58
2024-02-06T03:36:34.674Z,22.60
2024-02-06T03:37:34.803Z,22.63
2024-02-06T03:38:34.724Z,22.66
2024-02-06T03:39:34.776Z,22.68
2024-02-06T03:40:34.874Z,22.70
2024-02-06T03:41:34.917Z,22.73
2024-02-06T03:42:35.026Z,22.75
2024-02-06T03:43:35.146Z,22.77
2024-02-06T03:44:35.135Z,22.80
2024-02-06T03:45:35.219Z,22.83
2024-02-06T03:46:35.341Z,22.84
2024-02-06T03:47:35.358Z,22.86
2024-02-06T03:48:35.473Z,22.87
2024-02-06T03:49:35.520Z,22.88
2024-02-06T03:50:35.572Z,22.89
2024-02-06T03:51:35.628Z,22.90
2024-02-06T03:52:35.709Z,22.91
2024-02-06T03:53:35.727Z,22.91
2024-02-06T03:54:35.768Z,22.92
2024-02-06T03:55:35.913Z,22.93
2024-02-06T03:56:35.933Z,22.90
2024-02-06T03:57:36.003Z,22.90
2024-02-06T03:58:36.099Z,22.89
2024-02-06T03:59:36.100Z,22.88
2024-02-06T04:00:36.203Z,22.88
2024-02-06T04:01:36.345Z,22.87
2024-02-06T04:02:36.352Z,22.85
2024-02-06T04:03:36.511Z,22.84
2024-02-06T04:04:36.540Z,22.82
2024-02-06T04:05:36.518Z,22.80
2024-02-06T04:06:36.643Z,22.73
2024-02-06T04:07:36.668Z,22.65
2024-02-06T04:08:36.679Z,22.59
2024-02-06T04:09:36.710Z,22.52
2024-02-06T04:10:36.783Z,22.47
2024-02-06T04:11:36.764Z,22.38
2024-02-06T04:12:36.767Z,22.29
2024-02-06T04:13:36.922Z,22.23
2024-02-06T04:14:36.801Z,22.16
2024-02-06T04:15:36.967Z,22.13
2024-02-06T04:16:36.891Z,22.11
2024-02-06T04:17:36.873Z,22.12
2024-02-06T04:18:37.014Z,22.14
2024-02-06T04:19:36.945Z,22.18
2024-02-06T04:20:36.925Z,22.22
2024-02-06T04:21:36.868Z,22.25
2024-02-06T04:22:37.000Z,22.28
2024-02-06T04:23:36.928Z,22.30
2024-02-06T04:24:36.891Z,22.30
2024-02-06T04:25:37.093Z,22.30
2024-02-06T04:26:36.934Z,22.30
2024-02-06T04:27:36.930Z,22.30
2024-02-06T04:28:36.990Z,22.29
2024-02-06T04:29:36.952Z,22.28
2024-02-06T04:30:36.986Z,22.27
2024-02-06T04:31:37.036Z,22.23
2024-02-06T04:32:37.122Z,22.17
2024-02-06T04:33:37.133Z,22.11
2024-02-06T04:34:37.056Z,22.10
2024-02-06T04:35:37.026Z,22.08
2024-02-06T04:36:37.135Z,22.06
2024-02-06T04:37:37.168Z,22.04
2024-02-06T04:38:37.108Z,22.03
2024-02-06T04:39:37.181Z,22.00
2024-02-06T04:40:37.269Z,21.98
2024-02-06T04:41:37.311Z,21.95
2024-02-06T04:42:37.274Z,21.95
2024-02-06T04:43:37.430Z,21.94
2024-02-06T04:44:37.304Z,21.94
2024-02-06T04:45:37.462Z,21.95
2024-02-06T04:46:37.432Z,21.97
2024-02-06T04:47:37.477Z,22.00
2024-02-06T04:48:44.828Z,22.02
2024-02-06T04:49:44.926Z,22.07
2024-02-06T04:50:44.799Z,22.10
2024-02-06T04:51:44.821Z,22.14
2024-02-06T04:52:44.855Z,22.17
2024-02-06T04:53:44.807Z,22.17
2024-02-06T04:54:44.828Z,22.17
2024-02-06T04:55:44.873Z,22.13
2024-02-06T04:56:44.824Z,22.10
2024-02-06T04:57:44.841Z,22.06
2024-02-06T04:58:44.862Z,22.02
2024-02-06T04:59:44.817Z,21.98
2024-02-06T05:00:44.869Z,21.97
2024-02-06T05:01:44.860Z,21.95
2024-02-06T05:02:44.841Z,21.96
2024-02-06T05:03:44.852Z,21.95
2024-02-06T05:04:44.949Z,21.97
2024-02-06T05:05:44.845Z,21.98
2024-02-06T05:06:44.851Z,22.01
2024-02-06T05:07:44.855Z,22.05
2024-02-06T05:08:44.838Z,22.08
2024-02-06T05:09:44.826Z,22.11
2024-02-06T05:10:44.882Z,22.16
2024-02-06T05:11:44.843Z,22.18
2024-02-06T05:12:44.837Z,22.21
2024-02-06T05:13:44.865Z,22.25
2024-02-06T05:14:44.844Z,22.28
2024-02-06T05:15:44.820Z,22.29
2024-02-06T05:16:44.874Z,22.31
2024-02-06T05:17:44.961Z,22.35
2024-02-06T05:18:44.921Z,22.36
2024-02-06T05:19:44.870Z,22.38
2024-02-06T05:20:44.828Z,22.40
2024-02-06T05:21:44.872Z,22.41
2024-02-06T05:22:44.898Z,22.42
2024-02-06T05:23:44.861Z,22.40
2024-02-06T05:24:44.860Z,22.36
2024-02-06T05:25:44.908Z,22.34
2024-02-06T05:26:44.881Z,22.33
2024-02-06T05:27:44.862Z,22.30
2024-02-06T05:28:44.895Z,22.28
2024-02-06T05:29:44.857Z,22.25
2024-02-06T05:30:44.881Z,22.23
2024-02-06T05:31:44.925Z,22.21
2024-02-06T05:32:44.923Z,22.19
2024-02-06T05:33:44.959Z,22.17
2024-02-06T05:34:44.994Z,22.13
2024-02-06T05:35:44.881Z,22.12
2024-02-06T05:36:44.876Z,22.10
2024-02-06T05:37:44.962Z,22.08
2024-02-06T05:38:44.905Z,22.07
2024-02-06T05:39:44.903Z,22.05
2024-02-06T05:40:45.059Z,22.06
2024-02-06T05:41:44.900Z,22.05
2024-02-06T05:42:44.890Z,22.07
2024-02-06T05:43:44.926Z,22.08
2024-02-06T05:44:44.866Z,22.09
2024-02-06T05:45:44.921Z,22.08
2024-02-06T05:46:44.940Z,22.09
2024-02-06T05:47:44.926Z,22.11
2024-02-06T05:48:44.915Z,22.13
2024-02-06T05:49:44.986Z,22.16
2024-02-06T05:50:44.959Z,22.18
2024-02-06T05:51:44.894Z,22.22
2024-02-06T05:52:45.014Z,22.24
2024-02-06T05:53:46.232Z,22.25
2024-02-06T05:54:45.056Z,22.27
2024-02-06T05:55:45.212Z,22.27
2024-02-06T05:56:45.044Z,22.28
2024-02-06T05:57:45.085Z,22.28
2024-02-06T05:58:45.115Z,22.29
2024-02-06T05:59:45.095Z,22.30
2024-02-06T06:01:10.280Z,22.32
2024-02-06T06:01:45.150Z,22.30
2024-02-06T06:02:45.118Z,22.33
2024-02-06T06:03:45.149Z,22.36
2024-02-06T06:04:45.175Z,22.38
2024-02-06T06:05:45.297Z,22.41
2024-02-06T06:06:45.165Z,22.41
2024-02-06T06:07:45.214Z,22.43
2024-02-06T06:08:45.094Z,22.45
2024-02-06T06:09:45.154Z,22.46
2024-02-06T06:10:45.209Z,22.47
2024-02-06T06:11:45.129Z,22.49
2024-02-06T06:12:45.115Z,22.50
2024-02-06T06:13:45.152Z,22.50
2024-02-06T06:14:45.144Z,22.49
2024-02-06T06:15:45.143Z,22.46
2024-02-06T06:16:45.167Z,22.44
2024-02-06T06:17:45.183Z,22.40
2024-02-06T06:18:45.202Z,22.38
2024-02-06T06:19:45.312Z,22.36
2024-02-06T06:20:45.152Z,22.35
2024-02-06T06:21:45.158Z,22.34
2024-02-06T06:22:45.233Z,22.33
2024-02-06T06:23:45.163Z,22.35
2024-02-06T06:24:45.188Z,22.36
2024-02-06T06:25:45.204Z,22.38
2024-02-06T06:26:45.164Z,22.40
2024-02-06T06:27:45.236Z,22.41
2024-02-06T06:28:45.369Z,22.43
2024-02-06T06:29:45.370Z,22.45
2024-02-06T06:30:45.480Z,22.46
2024-02-06T06:31:45.618Z,22.47
2024-02-06T06:32:46.118Z,22.48
2024-02-06T06:33:45.785Z,22.51
2024-02-06T06:34:45.911Z,22.52
2024-02-06T06:35:45.855Z,22.52
2024-02-06T06:36:45.907Z,22.54
2024-02-06T06:37:45.981Z,22.56
2024-02-06T06:38:46.023Z,22.58
2024-02-06T06:39:46.090Z,22.60
2024-02-06T06:40:46.225Z,22.63
2024-02-06T06:41:46.195Z,22.65
2024-02-06T06:42:46.255Z,22.67
2024-02-06T06:43:46.451Z,22.70
2024-02-06T06:44:46.353Z,22.73
2024-02-06T06:46:09.472Z,22.77
2024-02-06T06:46:46.490Z,22.77
2024-02-06T06:47:46.594Z,22.84
2024-02-06T06:48:46.397Z,22.90
2024-02-06T06:49:46.471Z,22.96
2024-02-06T06:50:46.400Z,23.01
2024-02-06T06:51:46.434Z,23.06
2024-02-06T06:52:46.505Z,23.12
2024-02-06T06:53:46.440Z,23.16
2024-02-06T06:54:46.441Z,23.21
2024-02-06T06:55:46.554Z,23.25
2024-02-06T06:56:46.460Z,23.29
2024-02-06T06:57:46.454Z,23.32
2024-02-06T06:58:46.552Z,23.36
2024-02-06T06:59:47.423Z,23.39
2024-02-06T07:00:46.507Z,23.43
2024-02-06T07:01:46.545Z,23.45
2024-02-06T07:02:47.054Z,23.47
2024-02-06T07:03:46.564Z,23.48
2024-02-06T07:04:46.618Z,23.50
2024-02-06T07:05:46.802Z,23.50
2024-02-06T07:06:46.631Z,23.49
2024-02-06T07:07:47.076Z,23.45
2024-02-06T07:08:46.584Z,23.42
2024-02-06T07:09:46.565Z,23.37
2024-02-06T07:10:46.689Z,23.32
2024-02-06T07:11:46.570Z,23.30
2024-02-06T07:12:46.600Z,23.28
2024-02-06T07:13:46.713Z,23.29
2024-02-06T07:14:46.645Z,23.33
2024-02-06T07:15:46.660Z,23.36
2024-02-06T07:16:50.421Z,23.41
2024-02-06T07:17:46.712Z,23.45
2024-02-06T07:18:46.646Z,23.50
2024-02-06T07:19:46.778Z,23.55
2024-02-06T07:20:46.689Z,23.60
2024-02-06T07:21:46.691Z,23.65
2024-02-06T07:22:46.823Z,23.69
2024-02-06T07:23:46.701Z,23.75
2024-02-06T07:24:46.696Z,23.79
2024-02-06T07:25:46.713Z,23.83
2024-02-06T07:26:46.670Z,23.87
2024-02-06T07:27:46.657Z,23.90
2024-02-06T07:28:46.690Z,23.94
2024-02-06T07:29:46.715Z,23.96
2024-02-06T07:30:46.736Z,23.98
2024-02-06T07:31:46.816Z,24.00
2024-02-06T07:32:46.674Z,24.03
2024-02-06T07:33:46.710Z,24.05
2024-02-06T07:34:46.725Z,24.07
2024-02-06T07:35:46.666Z,24.08
2024-02-06T07:36:46.706Z,24.10
2024-02-06T07:37:47.078Z,24.14
2024-02-06T07:38:46.658Z,24.15
2024-02-06T07:39:46.699Z,24.13
2024-02-06T07:40:46.808Z,24.10
2024-02-06T07:41:46.726Z,24.11
2024-02-06T07:42:47.042Z,24.11
2024-02-06T07:43:46.923Z,24.11
2024-02-06T07:44:46.910Z,24.09
2024-02-06T07:45:46.954Z,24.08
2024-02-06T07:46:47.072Z,24.06
2024-02-06T07:47:47.081Z,24.03
2024-02-06T07:48:47.322Z,24.02
2024-02-06T07:49:47.279Z,23.99
2024-02-06T07:50:49.535Z,23.98
2024-02-06T07:51:47.265Z,23.95
2024-02-06T07:52:47.584Z,23.92
2024-02-06T07:53:47.331Z,23.91
2024-02-06T07:54:47.272Z,23.88
2024-02-06T07:55:47.436Z,23.86
2024-02-06T07:56:47.307Z,23.84
2024-02-06T07:57:47.295Z,23.82
2024-02-06T07:58:47.346Z,23.81
2024-02-06T07:59:47.305Z,23.79
2024-02-06T08:00:47.313Z,23.78
2024-02-06T08:01:47.357Z,23.77
2024-02-06T08:02:47.324Z,23.77
2024-02-06T08:03:47.323Z,23.75
2024-02-06T08:04:47.404Z,23.75
2024-02-06T08:05:47.383Z,23.74
2024-02-06T08:06:47.369Z,23.74
2024-02-06T08:07:47.384Z,23.74
2024-02-06T08:08:47.307Z,23.73
2024-02-06T08:09:47.341Z,23.72
2024-02-06T08:10:47.671Z,23.71
2024-02-06T08:11:47.333Z,23.70
2024-02-06T08:12:47.353Z,23.70
2024-02-06T08:13:47.360Z,23.69
2024-02-06T08:14:47.308Z,23.68
2024-02-06T08:15:47.315Z,23.68
2024-02-06T08:16:47.395Z,23.68
2024-02-06T08:17:47.364Z,23.67
2024-02-06T08:18:47.353Z,23.67
2024-02-06T08:19:47.391Z,23.66
2024-02-06T08:20:48.364Z,23.66
2024-02-06T08:21:47.344Z,23.65
2024-02-06T08:22:47.626Z,23.65
2024-02-06T08:23:47.351Z,23.65
2024-02-06T08:24:47.316Z,23.65
2024-02-06T08:25:47.379Z,23.65
2024-02-06T08:26:47.334Z,23.65
2024-02-06T08:27:47.341Z,23.65
2024-02-06T08:28:47.431Z,23.66
2024-02-06T08:29:47.331Z,23.65
2024-02-06T08:30:47.322Z,23.68
2024-02-06T08:31:47.410Z,23.69
2024-02-06T08:32:47.595Z,23.74
2024-02-06T08:33:47.332Z,23.80
2024-02-06T08:34:47.417Z,23.85
2024-02-06T08:35:47.468Z,23.89
2024-02-06T08:36:47.493Z,23.92
2024-02-06T08:37:47.512Z,23.96
2024-02-06T08:38:47.597Z,23.98
2024-02-06T08:39:47.532Z,24.00
2024-02-06T08:40:47.756Z,24.00
2024-02-06T08:41:47.647Z,24.02
2024-02-06T08:42:47.690Z,24.03
2024-02-06T08:43:53.061Z,24.01
2024-02-06T08:44:48.693Z,23.91
2024-02-06T08:45:47.705Z,23.75
2024-02-06T08:46:47.697Z,23.59
2024-02-06T08:47:47.720Z,23.54
2024-02-06T08:48:47.852Z,23.53
2024-02-06T08:49:47.762Z,23.50
2024-02-06T08:50:47.772Z,23.52
2024-02-06T08:51:47.711Z,23.54
2024-02-06T08:52:47.736Z,23.55
2024-02-06T08:53:47.736Z,23.58
2024-02-06T08:54:47.733Z,23.60
2024-02-06T08:55:47.881Z,23.62
2024-02-06T08:56:47.751Z,23.63
2024-02-06T08:57:48.522Z,23.64
2024-02-06T08:58:47.852Z,23.64
2024-02-06T08:59:47.739Z,23.64
2024-02-06T09:00:47.799Z,23.65
2024-02-06T09:01:47.846Z,23.64
2024-02-06T09:02:47.867Z,23.64
2024-02-06T09:03:48.109Z,23.64
2024-02-06T09:04:48.038Z,23.65
2024-02-06T09:05:49.175Z,23.66
2024-02-06T09:06:47.938Z,23.66
2024-02-06T09:07:48.047Z,23.68
2024-02-06T09:08:48.015Z,23.67
2024-02-06T09:09:48.019Z,23.68
2024-02-06T09:10:48.189Z,23.67
2024-02-06T09:11:48.079Z,23.69
2024-02-06T09:12:48.098Z,23.71
2024-02-06T09:13:48.188Z,23.74
2024-02-06T09:14:48.146Z,23.78
2024-02-06T09:15:48.188Z,23.81
2024-02-06T09:16:48.229Z,23.84
2024-02-06T09:17:48.239Z,23.88
2024-02-06T09:18:48.582Z,23.91
2024-02-06T09:19:48.328Z,23.96
2024-02-06T09:20:48.337Z,23.98
2024-02-06T09:21:48.250Z,24.01
2024-02-06T09:22:48.292Z,24.04
2024-02-06T09:23:48.336Z,24.09
2024-02-06T09:24:48.410Z,24.13
2024-02-06T09:25:48.573Z,24.15
2024-02-06T09:26:48.528Z,24.19
2024-02-06T09:27:51.760Z,24.21
2024-02-06T09:28:48.635Z,24.23
2024-02-06T09:29:48.576Z,24.25
2024-02-06T09:30:48.582Z,24.27
2024-02-06T09:31:48.645Z,24.29
2024-02-06T09:32:48.693Z,24.30
2024-02-06T09:33:49.127Z,24.28
2024-02-06T09:34:48.646Z,24.26
2024-02-06T09:35:49.553Z,24.21
2024-02-06T09:36:48.619Z,24.17
2024-02-06T09:37:48.658Z,24.16
2024-02-06T09:38:48.653Z,24.13
2024-02-06T09:39:48.621Z,24.11
2024-02-06T09:40:48.651Z,24.09
2024-02-06T09:41:48.598Z,24.05
2024-02-06T09:42:48.632Z,24.03
2024-02-06T09:43:48.697Z,23.99
2024-02-06T09:44:48.646Z,23.97
2024-02-06T09:45:48.636Z,23.95
2024-02-06T09:46:48.675Z,23.92
2024-02-06T09:47:48.637Z,23.90
2024-02-06T09:48:48.757Z,23.88
2024-02-06T09:49:48.704Z,23.89
2024-02-06T09:50:48.633Z,23.88
2024-02-06T09:51:48.647Z,23.86
2024-02-06T09:52:48.724Z,23.90
2024-02-06T09:53:49.045Z,23.97
2024-02-06T09:54:48.661Z,23.98
2024-02-06T09:55:48.697Z,23.99
2024-02-06T09:56:48.682Z,23.99
2024-02-06T09:57:51.674Z,23.99
2024-02-06T09:58:48.724Z,23.98
2024-02-06T09:59:49.507Z,23.98
2024-02-06T10:00:48.696Z,23.98
2024-02-06T10:01:48.669Z,23.97
2024-02-06T10:02:48.649Z,23.95
2024-02-06T10:03:48.697Z,23.94
2024-02-06T10:04:48.749Z,23.93
2024-02-06T10:05:48.755Z,23.94
2024-02-06T10:06:48.775Z,23.92
2024-02-06T10:07:48.681Z,23.92
2024-02-06T10:08:48.734Z,23.92
2024-02-06T10:09:48.714Z,23.92
2024-02-06T10:10:48.822Z,23.91
2024-02-06T10:11:48.683Z,23.90
2024-02-06T10:12:48.674Z,23.89
2024-02-06T10:13:48.769Z,23.89
2024-02-06T10:14:48.677Z,23.88
2024-02-06T10:15:48.709Z,23.89
2024-02-06T10:16:48.795Z,23.88
2024-02-06T10:17:48.759Z,23.87
2024-02-06T10:18:48.673Z,23.88
2024-02-06T10:19:49.505Z,23.88
2024-02-06T10:20:48.767Z,23.89
2024-02-06T10:21:48.668Z,23.89
2024-02-06T10:22:48.775Z,23.88
2024-02-06T10:23:48.716Z,23.88
2024-02-06T10:24:48.659Z,23.88
2024-02-06T10:25:48.798Z,23.89
2024-02-06T10:26:48.691Z,23.88
2024-02-06T10:27:48.676Z,23.88
2024-02-06T10:28:48.758Z,23.89
2024-02-06T10:29:48.695Z,23.88
2024-02-06T10:30:48.710Z,23.90
2024-02-06T10:31:48.830Z,23.90
2024-02-06T10:32:48.730Z,23.90
2024-02-06T10:33:48.927Z,23.91
2024-02-06T10:34:48.858Z,23.91
2024-02-06T10:35:48.810Z,23.91
2024-02-06T10:36:49.338Z,23.92
2024-02-06T10:37:49.130Z,23.93
2024-02-06T10:38:49.112Z,23.93
2024-02-06T10:39:48.710Z,23.94
2024-02-06T10:40:50.144Z,23.94
2024-02-06T10:42:09.685Z,23.95
2024-02-06T10:43:25.337Z,23.95
2024-02-06T10:43:50.070Z,23.94
2024-02-06T10:44:49.785Z,23.92
2024-02-06T10:45:48.695Z,23.96
2024-02-06T10:46:48.820Z,24.00
2024-02-06T10:47:48.748Z,24.05
2024-02-06T10:48:49.107Z,24.10
2024-02-06T10:49:49.009Z,24.12
2024-02-06T10:50:48.829Z,24.12
2024-02-06T10:51:48.760Z,24.13
2024-02-06T10:52:48.915Z,24.15
2024-02-06T10:53:49.623Z,24.20
2024-02-06T10:54:48.715Z,24.27
2024-02-06T10:55:48.851Z,24.28
2024-02-06T10:56:48.720Z,24.29
2024-02-06T10:57:48.717Z,24.28
2024-02-06T10:58:48.946Z,24.28
2024-02-06T10:59:48.952Z,24.31
2024-02-06T11:00:49.075Z,24.37
2024-02-06T11:01:48.998Z,24.43
2024-02-06T11:02:49.024Z,24.45
2024-02-06T11:03:50.151Z,24.50
2024-02-06T11:04:49.169Z,24.56
2024-02-06T11:05:49.159Z,24.63
2024-02-06T11:06:49.226Z,24.71
2024-02-06T11:07:49.357Z,24.79
2024-02-06T11:08:49.273Z,24.82
2024-02-06T11:09:49.282Z,24.86
2024-02-06T11:10:49.348Z,24.91
2024-02-06T11:11:49.328Z,24.94
2024-02-06T11:12:49.320Z,25.00
2024-02-06T11:13:49.464Z,25.03
2024-02-06T11:14:49.318Z,25.07
2024-02-06T11:15:49.341Z,25.12
2024-02-06T11:16:49.374Z,25.14
2024-02-06T11:17:49.535Z,25.18
2024-02-06T11:18:49.495Z,25.20
2024-02-06T11:19:50.814Z,25.21
2024-02-06T11:20:49.551Z,25.20
2024-02-06T11:21:49.614Z,25.21
2024-02-06T11:22:49.740Z,25.22
2024-02-06T11:23:49.731Z,25.25
2024-02-06T11:24:49.787Z,25.26
2024-02-06T11:25:49.883Z,25.28
2024-02-06T11:26:49.917Z,25.27
2024-02-06T11:27:49.929Z,25.27
2024-02-06T11:28:50.005Z,25.27
2024-02-06T11:29:50.036Z,25.26
2024-02-06T11:30:50.089Z,25.24
2024-02-06T11:31:50.237Z,25.24
2024-02-06T11:32:50.271Z,25.21
2024-02-06T11:33:50.522Z,25.19
2024-02-06T11:34:50.470Z,25.17
2024-02-06T11:35:50.378Z,25.15
2024-02-06T11:36:50.448Z,25.12
2024-02-06T11:37:50.466Z,25.10
2024-02-06T11:38:50.386Z,25.08
2024-02-06T11:39:50.632Z,25.03
2024-02-06T11:40:50.534Z,24.99
2024-02-06T11:41:50.488Z,24.96
2024-02-06T11:42:50.491Z,24.91
2024-02-06T11:43:51.187Z,24.88
2024-02-06T11:44:50.582Z,24.87
2024-02-06T11:45:50.547Z,24.86
2024-02-06T11:46:50.587Z,24.87
2024-02-06T11:47:50.722Z,24.85
2024-02-06T11:48:50.750Z,24.83
2024-02-06T11:49:51.258Z,24.80
2024-02-06T11:50:50.788Z,24.79
2024-02-06T11:51:51.171Z,24.77
2024-02-06T11:52:50.761Z,24.75
2024-02-06T11:53:50.743Z,24.73
2024-02-06T11:54:50.770Z,24.71
2024-02-06T11:55:50.851Z,24.68
2024-02-06T11:56:50.832Z,24.66
2024-02-06T11:57:50.896Z,24.63
2024-02-06T11:58:50.973Z,24.60
2024-02-06T11:59:50.966Z,24.59
2024-02-06T12:00:50.976Z,24.58
2024-02-06T12:01:51.228Z,24.55
2024-02-06T12:02:51.099Z,24.54
2024-02-06T12:03:51.132Z,24.51
2024-02-06T12:04:51.193Z,24.47
2024-02-06T12:05:51.351Z,24.44
2024-02-06T12:06:51.390Z,24.42
2024-02-06T12:07:51.518Z,24.41
2024-02-06T12:08:51.407Z,24.39
2024-02-06T12:09:51.635Z,24.37
2024-02-06T12:10:51.564Z,24.36
2024-02-06T12:11:51.591Z,24.34
2024-02-06T12:12:51.634Z,24.32
2024-02-06T12:13:52.247Z,24.30
2024-02-06T12:14:51.772Z,24.29
2024-02-06T12:15:51.957Z,24.27
2024-02-06T12:16:51.942Z,24.24
2024-02-06T12:17:52.032Z,24.22
2024-02-06T12:18:52.734Z,24.20
2024-02-06T12:19:52.898Z,24.19
2024-02-06T12:20:52.244Z,24.17
2024-02-06T12:21:52.273Z,24.16
2024-02-06T12:22:52.369Z,24.15
2024-02-06T12:23:52.358Z,24.14
2024-02-06T12:24:52.455Z,24.13
2024-02-06T12:25:52.661Z,24.12
2024-02-06T12:26:52.639Z,24.12
2024-02-06T12:27:52.770Z,24.11
2024-02-06T12:28:52.859Z,24.12
2024-02-06T12:29:53.129Z,24.11
2024-02-06T12:30:52.995Z,24.10
2024-02-06T12:31:56.699Z,24.09
2024-02-06T12:32:53.044Z,24.08
2024-02-06T12:33:52.986Z,24.08
2024-02-06T12:34:53.231Z,24.06
2024-02-06T12:35:52.901Z,24.05
2024-02-06T12:36:52.885Z,24.05
2024-02-06T12:37:52.868Z,24.05
2024-02-06T12:38:52.936Z,24.05
2024-02-06T12:39:52.848Z,24.04
2024-02-06T12:40:53.008Z,24.03
2024-02-06T12:41:52.875Z,24.04
2024-02-06T12:42:52.894Z,24.03
2024-02-06T12:43:52.919Z,24.04
2024-02-06T12:44:53.456Z,24.04
2024-02-06T12:45:52.918Z,24.04
2024-02-06T12:46:52.925Z,24.04
2024-02-06T12:47:52.940Z,24.03
2024-02-06T12:48:53.159Z,24.03
2024-02-06T12:49:53.000Z,24.02
2024-02-06T12:50:53.164Z,24.03
2024-02-06T12:51:52.870Z,24.02
2024-02-06T12:52:53.126Z,24.01